Time;durP1;ratioP1;P1;durP2;ratioP2;P2;SDS_P1;SDS_P2;PMS_P1;PMS_P2;Temp;Humidity;BMP_temperature;BMP_pressure;BME280_temperature;BME280_humidity;BME280_pressure;Samples;Min_cycle;Max_cycle;Signal;HPM_P1;HPM_P2
2022/02/08 00:00:08;;;;;;;;;;;;;;;;;;7393365;19;2200;-42
2022/02/08 00:02:40;;;;;;;;;;;;;;;;;;7393669;19;2374;-42
2022/02/08 00:05:11;;;;;;;;;;;;;;;;;;7392067;19;2043;-45
2022/02/08 00:07:39;;;;;;;;;;;;;;;;;;7392874;19;2376;-42
2022/02/08 00:10:06;;;;;;;;;;;;;;;;;;7393009;19;2375;-42
2022/02/08 00:12:33;;;;;;;;;;;;;;;;;;7393921;19;1929;-41
2022/02/08 00:15:00;;;;;;;;;;;;;;;;;;7391639;19;2288;-41
2022/02/08 00:17:28;;;;;;;;;;;;;;;;;;7393148;19;2444;-42
2022/02/08 00:19:55;;;;;;;;;;;;;;;;;;7392709;19;2112;-43
2022/02/08 00:22:22;;;;;;;;;;;;;;;;;;7392608;19;1971;-47
2022/02/08 00:24:49;;;;;;;;;;;;;;;;;;7391771;19;2387;-43
2022/02/08 00:27:16;;;;;;;;;;;;;;;;;;7392743;19;2204;-42
2022/02/08 00:29:43;;;;;;;;;;;;;;;;;;7391794;19;2154;-43
2022/02/08 00:32:10;;;;;;;;;;;;;;;;;;7392968;19;2179;-43
2022/02/08 00:34:38;;;;;;;;;;;;;;;;;;7391883;19;2194;-43
2022/02/08 00:37:05;;;;;;;;;;;;;;;;;;7390683;19;2289;-42
2022/02/08 00:39:33;;;;;;;;;;;;;;;;;;7390384;19;2401;-48
2022/02/08 00:42:09;;;;;;;;;;;;;;;;;;7389682;19;1959;-41
2022/02/08 00:44:51;;;;;;;;;;;;;;;;;;7393731;19;2363;-42
2022/02/08 00:47:40;;;;;;;;;;;;;;;;;;7391031;19;2047;-41
2022/02/08 00:50:10;;;;;;;;;;;;;;;;;;7392644;19;2268;-40
2022/02/08 00:52:38;;;;;;;;;;;;;;;;;;7390568;19;2150;-44
2022/02/08 00:55:07;;;;;;;;;;;;;;;;;;7392155;19;2175;-43
2022/02/08 00:57:34;;;;;;;;;;;;;;;;;;7391285;19;2244;-43
2022/02/08 01:00:04;;;;;;;;;;;;;;;;;;7391647;19;2172;-41
2022/02/08 01:02:31;;;;;;;;;;;;;;;;;;7389204;19;2230;-45
2022/02/08 01:05:01;;;;;;;;;;;;;;;;;;7390408;19;2125;-46
2022/02/08 01:07:28;;;;;;;;;;;;;;;;;;7391527;19;2269;-42
2022/02/08 01:09:59;;;;;;;;;;;;;;;;;;7390796;19;2310;-44
2022/02/08 01:12:29;;;;;;;;;;;;;;;;;;7390752;19;1912;-42
2022/02/08 01:14:58;;;;;;;;;;;;;;;;;;7390368;19;1441;-42
2022/02/08 01:17:26;;;;;;;;;;;;;;;;;;7389787;19;1889;-42
2022/02/08 01:22:27;;;;;;;;;;;;;;;;;;7390514;19;2261;-41
2022/02/08 01:24:54;;;;;;;;;;;;;;;;;;7390675;19;1842;-41
2022/02/08 01:27:26;;;;;;;;;;;;;;;;;;7390302;19;2074;-45
2022/02/08 01:29:58;;;;;;;;;;;;;;;;;;7389059;19;2317;-45
2022/02/08 01:35:04;;;;;;;;;;;;;;;;;;7388471;19;2246;-43
2022/02/08 01:50:29;;;;;;;;;;;;;;;;;;7397425;19;2178;-42
2022/02/08 01:52:57;;;;;;;;;;;;;;;;;;7398030;19;2292;-42
2022/02/08 01:55:30;;;;;;;;;;;;;;;;;;7395923;19;1948;-42
2022/02/08 01:58:17;;;;;;;;;;;;;;;;;;7397477;19;2192;-44
2022/02/08 02:00:44;;;;;;;;;;;;;;;;;;7395821;19;2260;-42
2022/02/08 02:03:11;;;;;;;;;;;;;;;;;;7397471;19;1913;-44
2022/02/08 02:05:38;;;;;;;;;;;;;;;;;;7396618;19;2106;-44
2022/02/08 02:08:07;;;;;;;;;;;;;;;;;;7396233;19;2129;-41
2022/02/08 02:10:37;;;;;;;;;;;;;;;;;;7395655;19;2255;-41
2022/02/08 02:13:21;;;;;;;;;;;;;;;;;;7396645;19;2204;-42
2022/02/08 02:15:50;;;;;;;;;;;;;;;;;;7392746;19;2147;-42
2022/02/08 02:18:17;;;;;;;;;;;;;;;;;;7395450;19;1963;-42
2022/02/08 02:20:47;;;;;;;;;;;;;;;;;;7397109;19;2061;-43
2022/02/08 02:23:14;;;;;;;;;;;;;;;;;;7395339;19;2248;-42
2022/02/08 02:25:42;;;;;;;;;;;;;;;;;;7393162;19;2248;-43
2022/02/08 02:28:09;;;;;;;;;;;;;;;;;;7396214;19;2297;-46
2022/02/08 02:30:37;;;;;;;;;;;;;;;;;;7395152;19;1731;-42
2022/02/08 02:33:07;;;;;;;;;;;;;;;;;;7395095;19;2370;-43
2022/02/08 02:35:36;;;;;;;;;;;;;;;;;;7393914;19;2213;-42
2022/02/08 02:38:06;;;;;;;;;;;;;;;;;;7395286;19;2171;-40
2022/02/08 02:40:42;;;;;;;;;;;;;;;;;;7393327;19;1975;-40
2022/02/08 02:43:11;;;;;;;;;;;;;;;;;;7395033;19;2302;-41
2022/02/08 02:45:39;;;;;;;;;;;;;;;;;;7396825;19;2309;-42
2022/02/08 02:48:08;;;;;;;;;;;;;;;;;;7395986;19;2084;-42
2022/02/08 02:50:50;;;;;;;;;;;;;;;;;;7395856;19;2342;-41
2022/02/08 02:53:19;;;;;;;;;;;;;;;;;;7396344;19;2306;-42
2022/02/08 02:55:47;;;;;;;;;;;;;;;;;;7395544;19;2127;-44
2022/02/08 02:58:15;;;;;;;;;;;;;;;;;;7393819;19;2108;-41
2022/02/08 03:19:45;;;;;;;;;;;;;;;;;;7394488;19;2267;-42
2022/02/08 03:22:13;;;;;;;;;;;;;;;;;;7392146;19;2196;-41
2022/02/08 03:24:41;;;;;;;;;;;;;;;;;;7392967;19;2262;-42
2022/02/08 03:27:08;;;;;;;;;;;;;;;;;;7394980;19;2214;-43
2022/02/08 03:29:36;;;;;;;;;;;;;;;;;;7392900;19;2317;-42
2022/02/08 03:32:03;;;;;;;;;;;;;;;;;;7393236;19;2473;-45
2022/02/08 03:34:34;;;;;;;;;;;;;;;;;;7393764;19;2242;-44
2022/02/08 03:37:01;;;;;;;;;;;;;;;;;;7394625;19;1958;-44
2022/02/08 03:39:37;;;;;;;;;;;;;;;;;;7392720;19;2016;-42
2022/02/08 03:42:20;;;;;;;;;;;;;;;;;;7392699;19;1940;-43
2022/02/08 03:44:55;;;;;;;;;;;;;;;;;;7395948;19;2200;-43
2022/02/08 03:47:23;;;;;;;;;;;;;;;;;;7392474;19;2242;-43
2022/02/08 03:49:54;;;;;;;;;;;;;;;;;;7392405;19;2189;-44
2022/02/08 03:52:23;;;;;;;;;;;;;;;;;;7392203;19;2348;-46
2022/02/08 03:54:54;;;;;;;;;;;;;;;;;;7392439;19;2240;-45
2022/02/08 03:57:26;;;;;;;;;;;;;;;;;;7391916;19;2333;-44
2022/02/08 03:59:57;;;;;;;;;;;;;;;;;;7391958;19;2318;-44
2022/02/08 04:02:44;;;;;;;;;;;;;;;;;;7393403;19;1741;-41
2022/02/08 04:07:49;;;;;;;;;;;;;;;;;;7393753;19;2411;-44
2022/02/08 04:10:23;;;;;;;;;;;;;;;;;;7393087;19;2361;-42
2022/02/08 04:18:45;;;;;;;;;;;;;;;;;;7392243;19;2160;-45
2022/02/08 04:32:42;;;;;;;;;;;;;;;;;;7392844;19;2159;-46
2022/02/08 04:38:11;;;;;;;;;;;;;;;;;;7391934;19;2318;-43
2022/02/08 04:41:02;;;;;;;;;;;;;;;;;;7392001;19;2286;-44
2022/02/08 04:43:40;;;;;;;;;;;;;;;;;;7391779;19;2246;-44
2022/02/08 04:47:03;;;;;;;;;;;;;;;;;;7392321;19;2109;-42
2022/02/08 04:49:00;;;;;;;;;;;;;;;;;;7391230;19;2418;-42
2022/02/08 04:51:43;;;;;;;;;;;;;;;;;;7391579;19;2292;-43
2022/02/08 04:54:17;;;;;;;;;;;;;;;;;;7392305;19;2394;-42
2022/02/08 04:59:26;;;;;;;;;;;;;;;;;;7391425;19;2246;-42
2022/02/08 05:27:03;;;;;;;;;;;;;;;;;;7389535;19;2103;-41
2022/02/08 05:34:10;;;;;;;;;;;;;;;;;;7390897;19;2223;-45
2022/02/08 05:48:39;;;;;;;;;;;;;;;;;;7388951;19;1517;-45
2022/02/08 05:51:16;;;;;;;;;;;;;;;;;;7390161;19;1592;-42
2022/02/08 05:53:45;;;;;;;;;;;;;;;;;;7389045;19;2153;-48
2022/02/08 05:56:14;;;;;;;;;;;;;;;;;;7390193;19;2027;-47
2022/02/08 05:58:43;;;;;;;;;;;;;;;;;;7390243;19;2580;-42
2022/02/08 06:01:11;;;;;;;;;;;;;;;;;;7389951;19;2064;-41
2022/02/08 06:03:54;;;;;;;;;;;;;;;;;;7387744;19;1952;-43
2022/02/08 06:06:24;;;;;;;;;;;;;;;;;;7389001;19;2015;-42
2022/02/08 06:08:52;;;;;;;;;;;;;;;;;;7390082;19;2304;-42
2022/02/08 06:11:19;;;;;;;;;;;;;;;;;;7389959;19;2376;-45
2022/02/08 06:13:51;;;;;;;;;;;;;;;;;;7389548;19;2295;-43
2022/02/08 06:16:25;;;;;;;;;;;;;;;;;;7390032;19;2410;-41
2022/02/08 06:18:52;;;;;;;;;;;;;;;;;;7389516;19;2039;-47
2022/02/08 06:21:19;;;;;;;;;;;;;;;;;;7387507;19;2253;-41
2022/02/08 06:23:46;;;;;;;;;;;;;;;;;;7389753;19;2229;-45
2022/02/08 06:26:15;;;;;;;;;;;;;;;;;;7387985;19;2205;-43
2022/02/08 06:28:43;;;;;;;;;;;;;;;;;;7389377;19;2362;-43
2022/02/08 06:31:10;;;;;;;;;;;;;;;;;;7389302;19;1751;-40
2022/02/08 06:33:42;;;;;;;;;;;;;;;;;;7389248;19;1351;-41
2022/02/08 06:36:09;;;;;;;;;;;;;;;;;;7393999;19;1576;-47
2022/02/08 06:38:36;;;;;;;;;;;;;;;;;;7395789;19;1947;-43
2022/02/08 06:41:03;;;;;;;;;;;;;;;;;;7396234;19;2365;-43
2022/02/08 06:43:31;;;;;;;;;;;;;;;;;;7395491;19;2298;-43
2022/02/08 06:46:00;;;;;;;;;;;;;;;;;;7399331;19;2112;-42
2022/02/08 06:48:27;;;;;;;;;;;;;;;;;;7396606;19;2093;-43
2022/02/08 06:50:54;;;;;;;;;;;;;;;;;;7395692;19;2255;-43
2022/02/08 06:53:23;;;;;;;;;;;;;;;;;;7396128;19;2253;-42
2022/02/08 06:55:50;;;;;;;;;;;;;;;;;;7395724;19;2226;-42
2022/02/08 06:58:19;;;;;;;;;;;;;;;;;;7395653;19;2293;-43
2022/02/08 07:00:48;;;;;;;;;;;;;;;;;;7395383;19;2202;-45
2022/02/08 07:03:16;;;;;;;;;;;;;;;;;;7395681;19;2084;-47
2022/02/08 07:05:43;;;;;;;;;;;;;;;;;;7394574;19;2254;-43
2022/02/08 07:08:11;;;;;;;;;;;;;;;;;;7396157;19;2263;-49
2022/02/08 07:10:41;;;;;;;;;;;;;;;;;;7394153;19;2230;-43
2022/02/08 07:13:09;;;;;;;;;;;;;;;;;;7395979;19;2084;-43
2022/02/08 07:15:38;;;;;;;;;;;;;;;;;;7393392;19;2323;-41
2022/02/08 07:18:05;;;;;;;;;;;;;;;;;;7395188;19;2167;-49
2022/02/08 07:20:34;;;;;;;;;;;;;;;;;;7394562;19;2074;-42
2022/02/08 07:23:01;;;;;;;;;;;;;;;;;;7394716;19;1635;-41
2022/02/08 07:25:32;;;;;;;;;;;;;;;;;;7394165;19;2259;-42
2022/02/08 07:27:59;;;;;;;;;;;;;;;;;;7394794;19;1996;-45
2022/02/08 07:30:29;;;;;;;;;;;;;;;;;;7394487;19;1346;-41
2022/02/08 07:32:56;;;;;;;;;;;;;;;;;;7397912;19;1933;-43
2022/02/08 07:38:04;;;;;;;;;;;;;;;;;;7393984;19;2204;-48
2022/02/08 07:43:00;;;;;;;;;;;;;;;;;;7393524;19;2140;-48
2022/02/08 07:45:53;;;;;;;;;;;;;;;;;;7392075;19;2235;-42
2022/02/08 07:48:21;;;;;;;;;;;;;;;;;;7393118;19;2391;-42
2022/02/08 07:50:51;;;;;;;;;;;;;;;;;;7393551;19;1914;-42
2022/02/08 07:53:19;;;;;;;;;;;;;;;;;;7393477;19;2067;-43
2022/02/08 07:55:46;;;;;;;;;;;;;;;;;;7391506;19;2319;-44
2022/02/08 07:58:15;;;;;;;;;;;;;;;;;;7391921;19;2218;-47
2022/02/08 08:00:42;;;;;;;;;;;;;;;;;;7393209;19;2291;-43
2022/02/08 08:03:09;;;;;;;;;;;;;;;;;;7393387;19;1962;-45
2022/02/08 08:05:37;;;;;;;;;;;;;;;;;;7390863;19;2296;-42
2022/02/08 08:08:07;;;;;;;;;;;;;;;;;;7397059;19;1801;-47
2022/02/08 08:10:35;;;;;;;;;;;;;;;;;;7395581;19;2420;-46
2022/02/08 08:13:07;;;;;;;;;;;;;;;;;;7395234;19;2262;-49
2022/02/08 08:15:43;;;;;;;;;;;;;;;;;;7390234;19;2093;-38
2022/02/08 08:21:35;;;;;;;;;;;;;;;;;;7391102;19;2574;-44
2022/02/08 08:24:27;;;;;;;;;;;;;;;;;;7391788;19;2153;-48
2022/02/08 08:27:23;;;;;;;;;;;;;;;;;;7390541;19;1854;-45
2022/02/08 08:30:09;;;;;;;;;;;;;;;;;;7392821;19;2044;-44
2022/02/08 08:32:52;;;;;;;;;;;;;;;;;;7393241;19;2269;-47
2022/02/08 08:35:23;;;;;;;;;;;;;;;;;;7390935;19;1882;-47
2022/02/08 08:37:59;;;;;;;;;;;;;;;;;;7391610;19;1227;-50
2022/02/08 08:40:49;;;;;;;;;;;;;;;;;;7392298;19;2222;-42
2022/02/08 08:53:51;;;;;;;;;;;;;;;;;;7392020;19;2038;-47
2022/02/08 08:56:24;;;;;;;;;;;;;;;;;;7391156;19;2219;-43
2022/02/08 08:59:03;;;;;;;;;;;;;;;;;;7388733;19;2004;-50
2022/02/08 09:01:33;;;;;;;;;;;;;;;;;;7393334;19;1050;-48
2022/02/08 09:06:52;;;;;;;;;;;;;;;;;;7390188;19;2214;-46
2022/02/08 09:09:59;;;;;;;;;;;;;;;;;;7386191;19;1699;-46
2022/02/08 09:15:50;;;;;;;;;;;;;;;;;;7382876;19;2372;-49
2022/02/08 09:27:23;;;;;;;;;;;;;;;;;;7386680;19;2267;-48
2022/02/08 09:30:39;;;;;;;;;;;;;;;;;;7386339;19;1829;-48
2022/02/08 09:32:54;;;;;;;;;;;;;;;;;;7386780;19;2262;-45
2022/02/08 09:35:21;;;;;;;;;;;;;;;;;;7384563;19;2312;-46
2022/02/08 09:37:52;;;;;;;;;;;;;;;;;;7388710;19;1663;-47
2022/02/08 09:40:23;;;;;;;;;;;;;;;;;;7390100;19;1666;-47
2022/02/08 09:42:54;;;;;;;;;;;;;;;;;;7386164;19;1889;-45
2022/02/08 09:45:37;;;;;;;;;;;;;;;;;;7390070;19;2473;-48
2022/02/08 09:48:13;;;;;;;;;;;;;;;;;;7385236;19;1859;-47
2022/02/08 09:50:44;;;;;;;;;;;;;;;;;;7382632;19;2198;-47
2022/02/08 09:53:19;;;;;;;;;;;;;;;;;;7384640;19;2300;-42
2022/02/08 09:55:47;;;;;;;;;;;;;;;;;;7385822;19;2220;-50
2022/02/08 09:58:18;;;;;;;;;;;;;;;;;;7386440;19;2141;-47
2022/02/08 10:00:45;;;;;;;;;;;;;;;;;;7385224;19;2164;-46
2022/02/08 10:03:13;;;;;;;;;;;;;;;;;;7386822;19;2156;-49
2022/02/08 10:05:45;;;;;;;;;;;;;;;;;;7386652;19;1990;-48
2022/02/08 10:08:13;;;;;;;;;;;;;;;;;;7385418;19;2176;-41
2022/02/08 10:10:42;;;;;;;;;;;;;;;;;;7393299;19;2295;-39
2022/02/08 10:13:40;;;;;;;;;;;;;;;;;;7394150;19;2198;-43
2022/02/08 10:21:45;;;;;;;;;;;;;;;;;;7392509;19;2254;-44
2022/02/08 10:24:14;;;;;;;;;;;;;;;;;;7392784;19;2065;-43
2022/02/08 10:29:26;;;;;;;;;;;;;;;;;;7393356;19;2300;-45
2022/02/08 10:37:41;;;;;;;;;;;;;;;;;;7393298;19;2128;-44
2022/02/08 10:40:16;;;;;;;;;;;;;;;;;;7392733;19;2248;-47
2022/02/08 10:42:53;;;;;;;;;;;;;;;;;;7392840;19;2137;-42
2022/02/08 10:45:21;;;;;;;;;;;;;;;;;;7395330;19;2192;-46
2022/02/08 10:47:55;;;;;;;;;;;;;;;;;;7390643;19;2322;-46
2022/02/08 10:50:23;;;;;;;;;;;;;;;;;;7392587;19;2163;-43
2022/02/08 10:52:50;;;;;;;;;;;;;;;;;;7395870;19;2119;-48
2022/02/08 10:57:55;;;;;;;;;;;;;;;;;;7395764;19;2244;-45
2022/02/08 11:00:39;;;;;;;;;;;;;;;;;;7395844;19;2070;-45
2022/02/08 11:03:12;;;;;;;;;;;;;;;;;;7394863;19;2086;-41
2022/02/08 11:05:58;;;;;;;;;;;;;;;;;;7395574;19;2259;-44
2022/02/08 11:08:49;;;;;;;;;;;;;;;;;;7392714;19;2147;-45
2022/02/08 11:22:34;;;;;;;;;;;;;;;;;;7392600;19;2203;-46
2022/02/08 11:25:16;;;;;;;;;;;;;;;;;;7394313;19;2073;-45
2022/02/08 11:27:52;;;;;;;;;;;;;;;;;;7393468;19;2129;-44
2022/02/08 11:30:49;;;;;;;;;;;;;;;;;;7394743;19;2300;-50
2022/02/08 11:44:32;;;;;;;;;;;;;;;;;;7393915;19;2214;-45
2022/02/08 11:47:17;;;;;;;;;;;;;;;;;;7392109;19;2366;-42
2022/02/08 11:55:20;;;;;;;;;;;;;;;;;;7392985;19;2308;-43
2022/02/08 12:00:40;;;;;;;;;;;;;;;;;;7393097;19;2244;-44
2022/02/08 12:08:17;;;;;;;;;;;;;;;;;;7391493;19;2224;-42
2022/02/08 12:10:56;;;;;;;;;;;;;;;;;;7393474;19;2202;-42
2022/02/08 12:28:01;;;;;;;;;;;;;;;;;;7392767;19;2172;-42
2022/02/08 12:33:07;;;;;;;;;;;;;;;;;;7389711;19;2161;-40
2022/02/08 12:54:38;;;;;;;;;;;;;;;;;;7391781;19;2169;-40
2022/02/08 12:57:26;;;;;;;;;;;;;;;;;;7391368;19;2151;-39
2022/02/08 13:02:42;;;;;;;;;;;;;;;;;;7391930;19;2186;-40
2022/02/08 14:07:12;;;;;;;;;;;;;;;;;;7397000;19;2158;-43
2022/02/08 14:10:04;;;;;;;;;;;;;;;;;;7397320;19;2128;-48
2022/02/08 14:16:10;;;;;;;;;;;;;;;;;;7395585;19;2043;-48
2022/02/08 14:24:12;;;;;;;;;;;;;;;;;;7396566;19;2184;-45
2022/02/08 15:10:34;;;;;;;;;;;;;;;;;;7395124;19;2292;-45
2022/02/08 15:13:02;;;;;;;;;;;;;;;;;;7395371;19;2238;-46
2022/02/08 15:18:16;;;;;;;;;;;;;;;;;;7394866;19;2082;-52
2022/02/08 15:20:44;;;;;;;;;;;;;;;;;;7395012;19;2156;-44
2022/02/08 15:23:30;;;;;;;;;;;;;;;;;;7394286;19;2158;-45
2022/02/08 15:25:59;;;;;;;;;;;;;;;;;;7394753;19;2197;-44
2022/02/08 15:28:28;;;;;;;;;;;;;;;;;;7393709;19;2040;-52
2022/02/08 15:30:56;;;;;;;;;;;;;;;;;;7394735;19;2196;-43
2022/02/08 15:33:25;;;;;;;;;;;;;;;;;;7394853;19;2257;-43
2022/02/08 15:35:53;;;;;;;;;;;;;;;;;;7394270;19;2140;-43
2022/02/08 15:38:27;;;;;;;;;;;;;;;;;;7394532;19;2172;-43
2022/02/08 15:40:54;;;;;;;;;;;;;;;;;;7394563;19;2314;-43
2022/02/08 15:43:22;;;;;;;;;;;;;;;;;;7398129;19;2126;-46
2022/02/08 15:45:57;;;;;;;;;;;;;;;;;;7396378;19;2114;-45
2022/02/08 15:48:24;;;;;;;;;;;;;;;;;;7392475;19;2190;-43
2022/02/08 15:53:33;;;;;;;;;;;;;;;;;;7394241;19;2159;-51
2022/02/08 16:05:09;;;;;;;;;;;;;;;;;;7393981;19;2236;-44
2022/02/08 16:10:05;;;;;;;;;;;;;;;;;;7388928;19;2404;-44
2022/02/08 16:15:54;;;;;;;;;;;;;;;;;;7387448;19;2319;-45
2022/02/08 16:18:31;;;;;;;;;;;;;;;;;;7393028;19;2153;-44
2022/02/08 16:26:15;;;;;;;;;;;;;;;;;;7392531;19;2095;-46
2022/02/08 16:28:59;;;;;;;;;;;;;;;;;;7392475;19;2138;-46
2022/02/08 16:31:57;;;;;;;;;;;;;;;;;;7392826;19;2105;-48
2022/02/08 16:49:02;;;;;;;;;;;;;;;;;;7391679;19;2214;-44
2022/02/08 16:53:58;;;;;;;;;;;;;;;;;;7392438;19;2193;-45
2022/02/08 16:56:39;;;;;;;;;;;;;;;;;;7388340;19;2185;-42
2022/02/08 16:59:08;;;;;;;;;;;;;;;;;;7387111;19;2086;-42
2022/02/08 17:01:37;;;;;;;;;;;;;;;;;;7391249;19;2048;-43
2022/02/08 17:04:08;;;;;;;;;;;;;;;;;;7391958;19;2126;-42
2022/02/08 17:06:35;;;;;;;;;;;;;;;;;;7391424;19;2106;-43
2022/02/08 17:09:14;;;;;;;;;;;;;;;;;;7390188;19;2229;-42
2022/02/08 17:11:47;;;;;;;;;;;;;;;;;;7392008;19;2191;-48
2022/02/08 17:49:57;;;;;;;;;;;;;;;;;;7388276;19;2173;-41
2022/02/08 17:52:24;;;;;;;;;;;;;;;;;;7390193;19;2171;-44
2022/02/08 17:54:51;;;;;;;;;;;;;;;;;;7389575;19;2188;-41
2022/02/08 17:57:18;;;;;;;;;;;;;;;;;;7390215;19;1950;-40
2022/02/08 17:59:47;;;;;;;;;;;;;;;;;;7394030;19;2021;-41
2022/02/08 18:02:14;;;;;;;;;;;;;;;;;;7390670;19;2121;-42
2022/02/08 18:04:46;;;;;;;;;;;;;;;;;;7388976;19;2130;-43
2022/02/08 18:07:17;;;;;;;;;;;;;;;;;;7390442;19;2092;-46
2022/02/08 18:09:44;;;;;;;;;;;;;;;;;;7388796;19;2136;-44
2022/02/08 18:12:12;;;;;;;;;;;;;;;;;;7389953;19;2237;-43
2022/02/08 18:14:48;;;;;;;;;;;;;;;;;;7388291;19;2239;-44
2022/02/08 18:17:20;;;;;;;;;;;;;;;;;;7390058;19;1611;-41
2022/02/08 18:19:52;;;;;;;;;;;;;;;;;;7389322;19;2153;-46
2022/02/08 19:19:19;;;;;;;;;;;;;;;;;;7395138;19;2090;-43
2022/02/08 19:21:46;;;;;;;;;;;;;;;;;;7395588;19;2223;-43
2022/02/08 19:24:20;;;;;;;;;;;;;;;;;;7396012;19;2017;-44
2022/02/08 19:26:48;;;;;;;;;;;;;;;;;;7394647;19;2007;-43
2022/02/08 19:29:17;;;;;;;;;;;;;;;;;;7394194;19;2019;-45
2022/02/08 19:31:45;;;;;;;;;;;;;;;;;;7393626;19;2048;-46
2022/02/08 19:34:13;;;;;;;;;;;;;;;;;;7394816;19;2325;-43
2022/02/08 19:36:42;;;;;;;;;;;;;;;;;;7394069;19;2171;-42
2022/02/08 19:39:10;;;;;;;;;;;;;;;;;;7394522;19;2159;-41
2022/02/08 19:41:38;;;;;;;;;;;;;;;;;;7393786;19;2247;-42
2022/02/08 19:44:09;;;;;;;;;;;;;;;;;;7395086;19;2187;-43
2022/02/08 19:46:37;;;;;;;;;;;;;;;;;;7394196;19;2142;-42
2022/02/08 19:49:05;;;;;;;;;;;;;;;;;;7393657;19;2282;-40
2022/02/08 19:51:34;;;;;;;;;;;;;;;;;;7394264;19;2159;-44
2022/02/08 19:54:02;;;;;;;;;;;;;;;;;;7394000;19;2353;-41
2022/02/08 19:56:38;;;;;;;;;;;;;;;;;;7396209;19;2118;-43
2022/02/08 19:59:07;;;;;;;;;;;;;;;;;;7393661;19;2216;-38
2022/02/08 20:01:37;;;;;;;;;;;;;;;;;;7393747;19;2183;-40
2022/02/08 20:04:15;;;;;;;;;;;;;;;;;;7394260;19;2106;-40
2022/02/08 20:06:42;;;;;;;;;;;;;;;;;;7393880;19;2078;-41
2022/02/08 20:09:10;;;;;;;;;;;;;;;;;;7392733;19;2112;-40
2022/02/08 20:11:37;;;;;;;;;;;;;;;;;;7393432;19;2127;-39
2022/02/08 20:14:07;;;;;;;;;;;;;;;;;;7391897;19;2090;-43
2022/02/08 20:16:35;;;;;;;;;;;;;;;;;;7392471;19;2056;-40
2022/02/08 20:19:04;;;;;;;;;;;;;;;;;;7393212;19;2168;-43
2022/02/08 20:21:32;;;;;;;;;;;;;;;;;;7392268;19;2108;-45
2022/02/08 20:24:02;;;;;;;;;;;;;;;;;;7392777;19;2228;-40
2022/02/08 20:27:13;;;;;;;;;;;;;;;;;;7393163;19;2160;-40
2022/02/08 20:29:24;;;;;;;;;;;;;;;;;;7391828;19;2191;-47
2022/02/08 20:31:52;;;;;;;;;;;;;;;;;;7393148;19;2198;-41
2022/02/08 20:34:23;;;;;;;;;;;;;;;;;;7392129;19;2091;-43
2022/02/08 20:36:51;;;;;;;;;;;;;;;;;;7392554;19;2021;-42
2022/02/08 20:39:18;;;;;;;;;;;;;;;;;;7392900;19;2190;-40
2022/02/08 20:41:46;;;;;;;;;;;;;;;;;;7393263;19;2131;-42
2022/02/08 20:44:16;;;;;;;;;;;;;;;;;;7393596;19;2252;-46
2022/02/08 20:46:51;;;;;;;;;;;;;;;;;;7391683;19;1968;-45
2022/02/08 20:49:18;;;;;;;;;;;;;;;;;;7392116;19;2181;-42
2022/02/08 20:51:47;;;;;;;;;;;;;;;;;;7392278;19;2152;-40
2022/02/08 20:54:19;;;;;;;;;;;;;;;;;;7390288;19;2150;-43
2022/02/08 20:57:00;;;;;;;;;;;;;;;;;;7391910;19;2173;-45
2022/02/08 20:59:28;;;;;;;;;;;;;;;;;;7392041;19;2191;-45
2022/02/08 21:02:16;;;;;;;;;;;;;;;;;;7391377;19;2185;-44
2022/02/08 21:05:01;;;;;;;;;;;;;;;;;;7392178;19;2138;-44
2022/02/08 21:07:29;;;;;;;;;;;;;;;;;;7391453;19;2138;-45
2022/02/08 21:09:56;;;;;;;;;;;;;;;;;;7390683;19;2666;-45
2022/02/08 21:12:40;;;;;;;;;;;;;;;;;;7390896;19;2119;-41
2022/02/08 21:15:09;;;;;;;;;;;;;;;;;;7390342;19;2186;-42
2022/02/08 21:17:38;;;;;;;;;;;;;;;;;;7390623;19;2191;-41
2022/02/08 21:20:07;;;;;;;;;;;;;;;;;;7391658;19;2149;-41
2022/02/08 21:22:34;;;;;;;;;;;;;;;;;;7392223;19;2091;-40
2022/02/08 21:25:02;;;;;;;;;;;;;;;;;;7391526;19;2445;-40
2022/02/08 21:27:32;;;;;;;;;;;;;;;;;;7391352;19;2078;-41
2022/02/08 21:52:24;;;;;;;;;;;;;;;;;;7388518;19;2150;-41
2022/02/08 21:54:52;;;;;;;;;;;;;;;;;;7389890;19;2225;-41
2022/02/08 21:57:22;;;;;;;;;;;;;;;;;;7390896;19;2135;-41
2022/02/08 21:59:49;;;;;;;;;;;;;;;;;;7390338;19;2162;-40
2022/02/08 22:02:18;;;;;;;;;;;;;;;;;;7390076;19;2072;-40
2022/02/08 22:04:46;;;;;;;;;;;;;;;;;;7391207;19;2616;-43
2022/02/08 22:07:15;;;;;;;;;;;;;;;;;;7398035;19;2083;-41
2022/02/08 22:09:44;;;;;;;;;;;;;;;;;;7396716;19;2217;-40
2022/02/08 22:23:23;;;;;;;;;;;;;;;;;;7394718;19;2016;-40
2022/02/08 22:26:12;;;;;;;;;;;;;;;;;;7397241;19;2238;-41
2022/02/08 22:31:19;;;;;;;;;;;;;;;;;;7394958;19;2200;-40
2022/02/08 22:33:49;;;;;;;;;;;;;;;;;;7396561;19;2205;-42
2022/02/08 22:37:03;;;;;;;;;;;;;;;;;;7396547;19;2220;-40
2022/02/08 22:39:13;;;;;;;;;;;;;;;;;;7395775;19;1915;-43
2022/02/08 22:41:47;;;;;;;;;;;;;;;;;;7396105;19;2176;-40
2022/02/08 22:44:24;;;;;;;;;;;;;;;;;;7396932;19;2103;-40
2022/02/08 22:46:55;;;;;;;;;;;;;;;;;;7396848;19;2224;-40
2022/02/08 22:49:23;;;;;;;;;;;;;;;;;;7394503;19;2156;-41
2022/02/08 22:51:51;;;;;;;;;;;;;;;;;;7396284;19;2169;-42
2022/02/08 22:54:18;;;;;;;;;;;;;;;;;;7395922;19;1985;-41
2022/02/08 22:56:47;;;;;;;;;;;;;;;;;;7396065;19;2122;-41
2022/02/08 22:59:15;;;;;;;;;;;;;;;;;;7395668;19;2096;-41
2022/02/08 23:01:43;;;;;;;;;;;;;;;;;;7395132;19;2200;-43
2022/02/08 23:04:13;;;;;;;;;;;;;;;;;;7395877;19;2152;-43
2022/02/08 23:06:41;;;;;;;;;;;;;;;;;;7395381;19;2100;-40
2022/02/08 23:09:14;;;;;;;;;;;;;;;;;;7398839;19;2225;-41
2022/02/08 23:14:29;;;;;;;;;;;;;;;;;;7394315;19;1985;-44
2022/02/08 23:36:54;;;;;;;;;;;;;;;;;;7392368;19;2144;-42
2022/02/08 23:39:08;;;;;;;;;;;;;;;;;;7394172;19;2090;-41
2022/02/08 23:41:35;;;;;;;;;;;;;;;;;;7394218;19;2028;-41
2022/02/08 23:44:02;;;;;;;;;;;;;;;;;;7394280;19;2116;-40
2022/02/08 23:46:29;;;;;;;;;;;;;;;;;;7393829;19;2179;-42
2022/02/08 23:49:03;;;;;;;;;;;;;;;;;;7393751;19;1928;-40
2022/02/08 23:51:37;;;;;;;;;;;;;;;;;;7392616;19;2115;-41
2022/02/08 23:54:08;;;;;;;;;;;;;;;;;;7394104;19;2098;-41
2022/02/08 23:59:07;;;;;;;;;;;;;;;;;;7393876;19;2178;-42
